Time;durP1;ratioP1;P1;durP2;ratioP2;P2;SDS_P1;SDS_P2;PMS_P1;PMS_P2;Temp;Humidity;BMP_temperature;BMP_pressure;BME280_temperature;BME280_humidity;BME280_pressure;Samples;Min_cycle;Max_cycle;Signal;HPM_P1;HPM_P2
2023/05/29 00:00:43;;;;;;;19.13;1.00;;;;;;;24.72;35.71;101092.38;7398057;19;20021;-64
2023/05/29 00:03:09;;;;;;;8.85;1.17;;;;;;;24.70;35.81;101097.84;7398045;19;20070;-64
2023/05/29 00:05:36;;;;;;;0.65;0.65;;;;;;;24.63;35.52;101100.56;7395964;19;20015;-64
2023/05/29 00:08:02;;;;;;;2.58;0.60;;;;;;;24.57;35.87;101099.88;7399240;19;20466;-64
2023/05/29 00:10:31;;;;;;;6.85;1.52;;;;;;;24.63;35.59;101109.09;7400177;19;20011;-64
2023/05/29 00:12:57;;;;;;;4.22;0.43;;;;;;;24.64;35.73;101111.44;7397441;19;20075;-64
2023/05/29 00:15:23;;;;;;;8.68;0.60;;;;;;;24.60;35.77;101108.09;7397240;19;20017;-64
2023/05/29 00:17:50;;;;;;;0.30;0.30;;;;;;;24.54;35.51;101106.66;7395376;19;20021;-64
2023/05/29 00:20:17;;;;;;;0.85;0.68;;;;;;;24.53;35.52;101108.75;7398987;19;20014;-64
2023/05/29 00:22:44;;;;;;;9.98;0.68;;;;;;;24.48;35.83;101106.00;7397024;19;20018;-63
2023/05/29 00:25:10;;;;;;;0.60;0.60;;;;;;;24.46;35.72;101097.22;7395134;19;20006;-63
2023/05/29 00:27:36;;;;;;;0.40;0.40;;;;;;;24.48;35.50;101106.75;7396993;19;20070;-64
2023/05/29 00:30:04;;;;;;;0.50;0.50;;;;;;;24.49;36.00;101108.31;7396429;19;20015;-64
2023/05/29 00:32:30;;;;;;;0.52;0.50;;;;;;;24.41;36.02;101107.38;7399419;19;20015;-65
2023/05/29 00:34:56;;;;;;;5.97;0.68;;;;;;;24.43;35.85;101121.09;7400329;19;20011;-64
2023/05/29 00:37:23;;;;;;;15.95;1.30;;;;;;;24.34;35.87;101113.75;7395649;19;20010;-63
2023/05/29 00:39:49;;;;;;;6.05;1.55;;;;;;;24.29;35.56;101123.13;7396697;19;20015;-64
2023/05/29 00:42:15;;;;;;;0.93;0.30;;;;;;;24.25;35.89;101121.91;7395838;19;20070;-64
2023/05/29 00:44:41;;;;;;;0.25;0.25;;;;;;;24.20;35.82;101119.91;7393665;19;20439;-64
2023/05/29 00:47:08;;;;;;;0.40;0.40;;;;;;;24.16;35.83;101127.97;7395011;19;20018;-64
2023/05/29 00:49:36;;;;;;;0.60;0.60;;;;;;;24.00;35.88;101119.13;7396639;19;20013;-63
2023/05/29 00:52:06;;;;;;;0.15;0.15;;;;;;;23.98;36.27;101116.03;7394884;19;20345;-63
2023/05/29 00:54:33;;;;;;;1.17;0.90;;;;;;;23.95;36.19;101128.50;7395668;19;20038;-63
2023/05/29 00:57:01;;;;;;;0.40;0.40;;;;;;;23.91;36.37;101110.97;7396062;19;20014;-64
2023/05/29 00:59:29;;;;;;;0.35;0.35;;;;;;;23.76;36.59;101116.34;7395292;19;20048;-64
2023/05/29 01:01:57;;;;;;;7.13;0.63;;;;;;;23.80;36.76;101111.09;7395576;19;20485;-64
2023/05/29 01:04:26;;;;;;;0.25;0.20;;;;;;;23.62;36.71;101111.88;7393567;19;20015;-64
2023/05/29 01:06:52;;;;;;;0.32;0.32;;;;;;;23.55;36.73;101118.16;7395542;19;20021;-63
2023/05/29 01:09:19;;;;;;;17.65;1.50;;;;;;;23.53;36.84;101122.84;7393418;19;20031;-63
2023/05/29 01:11:54;;;;;;;0.20;0.20;;;;;;;23.51;37.00;101123.38;7393288;19;20011;-63
2023/05/29 01:14:33;;;;;;;0.70;0.52;;;;;;;23.46;37.11;101127.06;7393891;19;20039;-64
2023/05/29 01:17:17;;;;;;;0.20;0.20;;;;;;;23.37;37.06;101129.50;7395189;19;20019;-64
2023/05/29 01:20:22;;;;;;;0.68;0.40;;;;;;;23.38;37.17;101126.13;7395773;19;20010;-64
2023/05/29 01:23:07;;;;;;;2.05;0.45;;;;;;;23.31;37.16;101123.84;7393065;19;20018;-63
2023/05/29 01:26:12;;;;;;;4.57;1.00;;;;;;;23.39;37.16;101127.66;7393886;19;20038;-62
2023/05/29 01:28:48;;;;;;;3.03;0.40;;;;;;;23.25;37.34;101134.50;7392399;19;20044;-63
2023/05/29 01:31:19;;;;;;;0.20;0.20;;;;;;;23.33;36.87;101124.09;7396519;19;20091;-63
2023/05/29 01:33:53;;;;;;;0.20;0.20;;;;;;;23.30;36.66;101125.16;7394773;19;20044;-63
2023/05/29 01:36:19;;;;;;;0.90;0.63;;;;;;;23.24;36.80;101132.97;7394075;19;20010;-63
2023/05/29 01:38:47;;;;;;;1.15;0.68;;;;;;;23.12;36.35;101131.53;7394092;19;20014;-63
2023/05/29 01:41:15;;;;;;;0.30;0.30;;;;;;;23.05;36.61;101127.22;7396227;19;20019;-63
2023/05/29 01:43:43;;;;;;;5.35;0.77;;;;;;;23.08;36.56;101125.38;7397209;19;20031;-63
2023/05/29 01:46:12;;;;;;;0.20;0.20;;;;;;;23.04;36.83;101133.44;7394637;19;20014;-64
2023/05/29 01:48:38;;;;;;;0.30;0.30;;;;;;;22.91;36.83;101134.09;7395789;19;20363;-63
2023/05/29 01:51:05;;;;;;;0.50;0.50;;;;;;;22.92;36.79;101134.84;7392341;19;20014;-63
2023/05/29 01:53:31;;;;;;;4.88;1.08;;;;;;;22.91;36.58;101130.47;7393102;19;20002;-63
2023/05/29 01:55:58;;;;;;;0.47;0.47;;;;;;;22.87;36.91;101138.50;7392626;19;20014;-63
2023/05/29 01:58:25;;;;;;;9.50;0.85;;;;;;;22.78;36.97;101138.84;7394019;19;20352;-63
2023/05/29 02:00:52;;;;;;;0.85;0.80;;;;;;;22.75;37.04;101137.84;7392341;19;20044;-63
2023/05/29 02:03:18;;;;;;;0.20;0.20;;;;;;;22.71;36.65;101130.91;7392018;19;20018;-63
2023/05/29 02:05:45;;;;;;;0.30;0.30;;;;;;;22.75;36.65;101139.91;7392674;19;20364;-63
2023/05/29 02:08:11;;;;;;;0.80;0.50;;;;;;;22.66;37.04;101134.56;7393419;19;20015;-63
2023/05/29 02:10:38;;;;;;;0.20;0.20;;;;;;;22.69;36.87;101127.81;7396522;19;20010;-63
2023/05/29 02:13:04;;;;;;;4.95;0.55;;;;;;;22.74;36.71;101132.69;7392675;19;20385;-63
2023/05/29 02:15:30;;;;;;;0.43;0.43;;;;;;;22.76;37.04;101132.94;7392659;19;20015;-63
2023/05/29 02:17:57;;;;;;;0.50;0.50;;;;;;;22.80;37.08;101133.41;7392792;19;20074;-63
2023/05/29 02:20:24;;;;;;;1.08;0.73;;;;;;;22.83;37.05;101141.63;7391696;19;20019;-63
2023/05/29 02:22:50;;;;;;;1.05;0.65;;;;;;;22.82;36.81;101131.59;7393191;19;20019;-63
2023/05/29 02:25:16;;;;;;;17.88;1.38;;;;;;;22.75;36.52;101148.41;7388988;19;20015;-62
2023/05/29 02:27:43;;;;;;;10.93;0.70;;;;;;;22.70;37.04;101132.22;7391803;19;20011;-62
2023/05/29 02:30:10;;;;;;;1.08;0.47;;;;;;;22.65;36.88;101138.69;7391523;19;20022;-63
2023/05/29 02:32:36;;;;;;;0.20;0.20;;;;;;;22.59;36.38;101131.00;7391781;19;20011;-63
2023/05/29 02:35:05;;;;;;;0.43;0.28;;;;;;;22.66;36.30;101134.56;7394692;19;20017;-63
2023/05/29 02:37:31;;;;;;;0.43;0.43;;;;;;;22.56;36.18;101139.78;7391896;19;20018;-63
2023/05/29 02:39:57;;;;;;;0.52;0.52;;;;;;;22.43;36.57;101140.38;7393719;19;20474;-63
2023/05/29 02:42:24;;;;;;;1.52;0.35;;;;;;;22.41;36.89;101131.63;7391136;19;20062;-63
2023/05/29 02:44:50;;;;;;;0.32;0.32;;;;;;;22.45;36.94;101134.97;7390633;19;20096;-63
2023/05/29 02:47:17;;;;;;;0.22;0.22;;;;;;;22.47;36.86;101135.19;7391002;19;20038;-63
2023/05/29 02:49:43;;;;;;;1.40;0.50;;;;;;;22.45;36.64;101126.44;7392483;19;20023;-63
2023/05/29 02:52:10;;;;;;;0.47;0.47;;;;;;;22.50;36.77;101122.75;7392832;19;20011;-64
2023/05/29 02:54:36;;;;;;;6.47;0.63;;;;;;;22.49;37.01;101126.91;7390991;19;20010;-63
2023/05/29 02:57:04;;;;;;;0.30;0.30;;;;;;;22.41;36.92;101133.69;7391053;19;20447;-63
2023/05/29 02:59:31;;;;;;;6.75;0.40;;;;;;;22.41;37.22;101130.84;7396281;19;20356;-63
2023/05/29 03:01:58;;;;;;;1.75;0.30;;;;;;;22.36;36.75;101140.19;7393379;19;20498;-63
2023/05/29 03:04:24;;;;;;;0.20;0.20;;;;;;;22.28;36.98;101139.97;7391181;19;20007;-62
2023/05/29 03:06:52;;;;;;;0.65;0.65;;;;;;;22.22;36.45;101144.91;7393937;19;20362;-62
2023/05/29 03:09:19;;;;;;;0.10;0.10;;;;;;;22.08;36.79;101137.53;7399827;19;20031;-62
2023/05/29 03:11:47;;;;;;;0.30;0.30;;;;;;;22.04;36.63;101142.72;7397613;19;20011;-62
2023/05/29 03:14:13;;;;;;;0.60;0.60;;;;;;;21.96;36.96;101141.69;7398969;19;20018;-63
2023/05/29 03:16:40;;;;;;;0.22;0.22;;;;;;;21.96;36.81;101133.19;7397009;19;20444;-62
2023/05/29 03:19:07;;;;;;;2.70;1.45;;;;;;;21.92;36.62;101135.53;7397274;19;20014;-63
2023/05/29 03:21:33;;;;;;;1.05;0.82;;;;;;;22.00;36.92;101136.53;7399182;19;20348;-62
2023/05/29 03:24:00;;;;;;;0.30;0.30;;;;;;;21.97;37.15;101131.13;7398652;19;20021;-62
2023/05/29 03:26:26;;;;;;;1.17;0.45;;;;;;;21.96;36.69;101130.34;7398997;19;20014;-62
2023/05/29 03:28:53;;;;;;;0.45;0.45;;;;;;;21.99;37.00;101134.22;7398781;19;20376;-62
2023/05/29 03:31:19;;;;;;;0.95;0.65;;;;;;;21.92;36.72;101144.03;7397053;19;20082;-63
2023/05/29 03:33:46;;;;;;;0.40;0.40;;;;;;;22.28;36.33;101139.97;7398357;19;20014;-63
2023/05/29 03:36:22;;;;;;;3.25;1.23;;;;;;;22.26;36.30;101148.22;7397316;19;20015;-63
2023/05/29 03:38:48;;;;;;;0.10;0.10;;;;;;;22.30;36.46;101143.06;7398935;19;20022;-63
2023/05/29 03:41:14;;;;;;;0.15;0.15;;;;;;;24.34;34.07;101144.28;7396901;19;20073;-64
2023/05/29 03:43:41;;;;;;;0.75;0.50;;;;;;;24.79;33.49;101148.00;7396535;19;20010;-63
2023/05/29 03:46:07;;;;;;;2.22;0.40;;;;;;;24.78;33.54;101146.44;7394120;19;20011;-64
2023/05/29 03:48:35;;;;;;;0.20;0.20;;;;;;;24.91;32.88;101143.63;7397401;19;20013;-63
2023/05/29 03:51:01;;;;;;;0.25;0.25;;;;;;;25.24;32.62;101148.72;7397993;19;20335;-63
2023/05/29 03:53:32;;;;;;;3.30;1.92;;;;;;;25.41;32.23;101151.25;7396946;19;20014;-63
2023/05/29 03:55:58;;;;;;;0.30;0.30;;;;;;;25.56;32.58;101145.78;7396394;19;20010;-63
2023/05/29 03:58:24;;;;;;;0.68;0.60;;;;;;;25.25;32.41;101147.41;7398441;19;20011;-63
2023/05/29 04:00:52;;;;;;;0.52;0.40;;;;;;;25.11;33.14;101140.16;7396511;19;20047;-63
2023/05/29 04:03:20;;;;;;;0.93;0.85;;;;;;;25.52;32.51;101148.97;7396411;19;20011;-63
2023/05/29 04:05:46;;;;;;;0.98;0.98;;;;;;;25.58;31.99;101146.78;7394249;19;20015;-62
2023/05/29 04:08:13;;;;;;;0.90;0.90;;;;;;;24.07;33.30;101152.69;7395592;19;20011;-63
2023/05/29 04:10:39;;;;;;;1.05;0.60;;;;;;;25.50;32.45;101157.31;7395690;19;20014;-62
2023/05/29 04:13:08;;;;;;;0.10;0.10;;;;;;;25.73;32.27;101154.78;7395559;19;20341;-62
2023/05/29 04:15:35;;;;;;;0.30;0.30;;;;;;;25.80;31.78;101153.34;7396257;19;20022;-62
2023/05/29 04:18:01;;;;;;;0.30;0.30;;;;;;;25.73;31.55;101159.72;7394638;19;20062;-62
2023/05/29 04:20:27;;;;;;;0.52;0.52;;;;;;;25.64;31.92;101160.94;7399364;19;20043;-62
2023/05/29 04:22:53;;;;;;;0.52;0.52;;;;;;;25.60;31.91;101159.75;7395551;19;20021;-62
2023/05/29 04:25:20;;;;;;;0.57;0.57;;;;;;;25.46;31.59;101159.75;7394449;19;20023;-62
2023/05/29 04:27:48;;;;;;;1.13;0.65;;;;;;;25.39;31.94;101160.38;7395137;19;20025;-62
2023/05/29 04:30:16;;;;;;;1.60;0.83;;;;;;;25.37;31.89;101157.28;7399769;19;20021;-62
2023/05/29 04:32:46;;;;;;;0.20;0.20;;;;;;;25.54;31.68;101160.63;7394192;19;20011;-63
2023/05/29 04:35:13;;;;;;;4.35;0.55;;;;;;;25.73;32.07;101165.44;7398620;19;20471;-63
2023/05/29 04:37:45;;;;;;;4.32;1.05;;;;;;;25.95;32.18;101168.59;7396707;19;20014;-62
2023/05/29 04:40:17;;;;;;;6.90;0.77;;;;;;;25.97;31.88;101168.03;7397948;19;20332;-63
2023/05/29 04:42:45;;;;;;;2.53;1.02;;;;;;;25.88;31.71;101171.34;7394809;19;20021;-62
2023/05/29 04:45:11;;;;;;;0.22;0.22;;;;;;;25.80;31.98;101167.59;7393484;19;20010;-62
2023/05/29 04:47:43;;;;;;;0.43;0.20;;;;;;;25.80;31.62;101171.25;7395322;19;20018;-62
2023/05/29 04:50:14;;;;;;;0.80;0.75;;;;;;;25.85;32.03;101172.44;7394453;19;20035;-62
2023/05/29 04:52:44;;;;;;;0.32;0.17;;;;;;;25.68;31.80;101177.72;7399386;19;20035;-62
2023/05/29 04:55:11;;;;;;;0.52;0.52;;;;;;;25.72;32.33;101175.31;7395878;19;20011;-63
2023/05/29 04:57:38;;;;;;;0.40;0.40;;;;;;;23.92;33.77;101180.81;7395207;19;20026;-62
2023/05/29 05:00:13;;;;;;;0.25;0.22;;;;;;;23.28;35.15;101178.94;7393637;19;20361;-62
2023/05/29 05:02:43;;;;;;;0.50;0.50;;;;;;;23.11;35.28;101181.94;7398359;19;20006;-62
2023/05/29 05:05:10;;;;;;;2.90;0.98;;;;;;;23.06;35.52;101185.63;7392399;19;20038;-61
2023/05/29 05:07:38;;;;;;;0.50;0.50;;;;;;;23.03;35.61;101183.03;7393245;19;20019;-62
2023/05/29 05:10:04;;;;;;;1.55;0.65;;;;;;;23.00;35.57;101181.28;7393073;19;20471;-62
2023/05/29 05:12:32;;;;;;;1.75;0.98;;;;;;;23.02;35.90;101178.69;7393394;19;20010;-62
2023/05/29 05:15:00;;;;;;;0.57;0.30;;;;;;;23.19;35.96;101176.44;7398602;19;20070;-61
2023/05/29 05:17:26;;;;;;;0.40;0.40;;;;;;;23.38;36.27;101174.47;7394416;19;20074;-62
2023/05/29 05:19:53;;;;;;;0.65;0.65;;;;;;;23.56;36.43;101184.34;7393908;19;20073;-62
2023/05/29 05:22:19;;;;;;;0.25;0.25;;;;;;;23.76;36.68;101181.78;7393548;19;20015;-62
2023/05/29 05:24:48;;;;;;;0.50;0.50;;;;;;;23.99;36.61;101185.91;7392908;19;20111;-62
2023/05/29 05:27:14;;;;;;;1.85;0.85;;;;;;;24.02;36.56;101184.81;7392356;19;20014;-62
2023/05/29 05:29:40;;;;;;;0.43;0.43;;;;;;;24.05;36.22;101183.78;7396407;19;20018;-62
2023/05/29 05:32:06;;;;;;;0.60;0.57;;;;;;;24.10;36.49;101185.75;7393759;19;20006;-63
2023/05/29 05:34:33;;;;;;;5.75;0.55;;;;;;;24.17;36.80;101183.63;7395626;19;20014;-63
2023/05/29 05:36:59;;;;;;;1.30;0.52;;;;;;;24.22;36.85;101179.91;7394522;19;20360;-63
2023/05/29 05:39:26;;;;;;;0.82;0.82;;;;;;;24.44;36.19;101188.13;7392697;19;20011;-62
2023/05/29 05:41:52;;;;;;;0.57;0.57;;;;;;;24.27;36.50;101181.91;7393139;19;20015;-62
2023/05/29 05:44:37;;;;;;;1.48;0.77;;;;;;;24.27;36.63;101187.63;7392196;19;20014;-62
2023/05/29 05:47:09;;;;;;;1.30;0.90;;;;;;;24.32;36.89;101190.38;7394485;19;20360;-62
2023/05/29 05:49:36;;;;;;;1.33;0.85;;;;;;;24.37;37.01;101194.44;7392911;19;20026;-63
2023/05/29 05:52:02;;;;;;;3.08;0.57;;;;;;;24.51;36.95;101193.22;7392587;19;20007;-63
2023/05/29 05:54:28;;;;;;;0.40;0.40;;;;;;;24.47;36.78;101193.50;7392739;19;20131;-63
2023/05/29 05:56:55;;;;;;;0.30;0.30;;;;;;;24.54;37.07;101194.97;7392861;19;20459;-63
2023/05/29 05:59:21;;;;;;;0.40;0.40;;;;;;;24.64;36.75;101196.91;7395898;19;20035;-63
2023/05/29 06:01:47;;;;;;;0.40;0.40;;;;;;;24.76;37.09;101200.34;7393467;19;20036;-63
2023/05/29 06:04:14;;;;;;;4.07;0.70;;;;;;;24.82;36.98;101192.47;7391594;19;20336;-62
2023/05/29 06:06:40;;;;;;;0.85;0.85;;;;;;;24.92;36.86;101193.63;7392640;19;20031;-63
2023/05/29 06:09:09;;;;;;;2.17;0.88;;;;;;;25.02;37.22;101191.13;7391281;19;20010;-62
2023/05/29 06:11:35;;;;;;;0.73;0.60;;;;;;;25.14;37.02;101196.09;7391148;19;20021;-63
2023/05/29 06:14:03;;;;;;;0.93;0.75;;;;;;;25.19;37.09;101203.75;7392101;19;20395;-63
2023/05/29 06:16:29;;;;;;;0.60;0.60;;;;;;;25.26;37.18;101197.44;7392360;19;20019;-63
2023/05/29 06:18:57;;;;;;;0.88;0.40;;;;;;;25.32;37.23;101192.38;7392275;19;20082;-63
2023/05/29 06:21:24;;;;;;;7.47;0.85;;;;;;;25.34;36.91;101201.16;7392192;19;20015;-64
2023/05/29 06:23:52;;;;;;;0.68;0.65;;;;;;;25.42;37.38;101199.25;7392301;19;20011;-63
2023/05/29 06:26:20;;;;;;;0.30;0.30;;;;;;;25.60;37.13;101205.41;7390038;19;20019;-63
2023/05/29 06:28:48;;;;;;;1.85;0.82;;;;;;;25.72;37.13;101198.13;7394469;19;20010;-63
2023/05/29 06:31:14;;;;;;;3.13;1.00;;;;;;;25.78;36.88;101196.72;7391201;19;20014;-64
2023/05/29 06:33:41;;;;;;;2.33;0.60;;;;;;;25.76;37.25;101204.28;7392442;19;20013;-64
2023/05/29 06:36:07;;;;;;;1.90;0.80;;;;;;;25.76;37.40;101207.13;7392108;19;20010;-63
2023/05/29 06:38:35;;;;;;;2.17;0.68;;;;;;;25.87;36.81;101209.78;7391403;19;20070;-64
2023/05/29 06:41:01;;;;;;;1.08;0.73;;;;;;;25.93;37.07;101210.41;7391965;19;20006;-63
2023/05/29 06:43:28;;;;;;;0.85;0.85;;;;;;;25.86;36.89;101213.97;7399570;19;20043;-63
2023/05/29 06:45:57;;;;;;;3.50;0.38;;;;;;;26.11;36.88;101212.41;7396589;19;20010;-63
2023/05/29 06:48:23;;;;;;;1.90;0.60;;;;;;;26.58;36.82;101210.28;7402026;19;20014;-64
2023/05/29 06:50:50;;;;;;;7.55;1.02;;;;;;;26.81;36.54;101211.31;7398803;19;20011;-64
2023/05/29 06:53:36;;;;;;;0.73;0.40;;;;;;;27.00;36.19;101217.63;7399483;19;20015;-65
2023/05/29 06:56:02;;;;;;;0.50;0.50;;;;;;;26.99;35.86;101216.06;7398287;19;20011;-65
2023/05/29 06:58:31;;;;;;;1.13;0.85;;;;;;;27.01;35.89;101219.16;7399812;19;20046;-65
2023/05/29 07:00:58;;;;;;;0.30;0.30;;;;;;;27.05;35.71;101221.66;7401830;19;20463;-64
2023/05/29 07:03:31;;;;;;;1.20;0.40;;;;;;;27.07;35.44;101216.16;7398357;19;20014;-65
2023/05/29 07:05:57;;;;;;;0.50;0.50;;;;;;;27.20;34.95;101223.88;7397334;19;20006;-64
2023/05/29 07:08:25;;;;;;;0.63;0.20;;;;;;;27.27;34.99;101217.44;7399823;19;20010;-64
2023/05/29 07:10:52;;;;;;;1.05;0.60;;;;;;;27.40;34.95;101225.97;7398301;19;20014;-64
2023/05/29 07:13:20;;;;;;;0.63;0.40;;;;;;;27.61;34.85;101223.84;7400370;19;20010;-65
2023/05/29 07:15:48;;;;;;;0.63;0.60;;;;;;;27.78;34.49;101221.28;7397121;19;20039;-64
2023/05/29 07:18:15;;;;;;;9.02;0.75;;;;;;;27.97;34.59;101216.06;7398250;19;20021;-64
2023/05/29 07:20:42;;;;;;;1.33;0.70;;;;;;;28.10;34.44;101215.19;7403863;19;20011;-64
2023/05/29 07:23:11;;;;;;;2.25;0.45;;;;;;;28.11;33.76;101220.34;7397307;19;20011;-64
2023/05/29 07:25:37;;;;;;;0.68;0.35;;;;;;;28.12;33.86;101213.28;7398816;19;20463;-64
2023/05/29 07:28:03;;;;;;;6.75;1.58;;;;;;;28.16;33.34;101213.69;7399890;19;20010;-63
2023/05/29 07:30:29;;;;;;;1.38;0.65;;;;;;;28.24;33.68;101208.00;7397997;19;20011;-63
2023/05/29 07:32:56;;;;;;;1.98;0.40;;;;;;;28.30;33.01;101203.63;7397677;19;20011;-64
2023/05/29 07:35:22;;;;;;;0.20;0.20;;;;;;;28.08;33.36;101210.03;7401265;19;20433;-64
2023/05/29 07:37:49;;;;;;;0.93;0.38;;;;;;;27.96;33.30;101213.75;7396205;19;20088;-65
2023/05/29 07:40:16;;;;;;;0.50;0.35;;;;;;;27.92;33.86;101208.38;7395958;19;20426;-64
2023/05/29 07:43:01;;;;;;;0.30;0.28;;;;;;;28.05;33.24;101216.09;7399654;19;20015;-64
2023/05/29 07:45:39;;;;;;;1.20;0.47;;;;;;;27.92;33.45;101225.56;7398692;19;20014;-64
2023/05/29 07:48:06;;;;;;;6.97;0.40;;;;;;;27.91;33.28;101224.03;7400548;19;20070;-64
2023/05/29 07:50:32;;;;;;;0.15;0.13;;;;;;;27.99;33.37;101224.88;7400038;19;19999;-64
2023/05/29 07:53:00;;;;;;;1.58;0.85;;;;;;;27.97;33.39;101239.00;7400475;19;20455;-65
2023/05/29 07:55:26;;;;;;;0.68;0.20;;;;;;;27.97;32.75;101239.00;7400169;19;20372;-65
2023/05/29 07:57:53;;;;;;;1.58;0.73;;;;;;;28.35;32.26;101230.59;7400181;19;20074;-65
2023/05/29 08:00:19;;;;;;;3.20;0.40;;;;;;;28.54;32.18;101228.91;7400381;19;20035;-65
2023/05/29 08:02:46;;;;;;;0.40;0.40;;;;;;;28.67;32.18;101235.84;7402937;19;20014;-64
2023/05/29 08:05:31;;;;;;;1.85;0.17;;;;;;;28.87;31.81;101227.09;7399017;19;20015;-64
2023/05/29 08:08:00;;;;;;;5.20;0.63;;;;;;;28.91;31.56;101232.47;7400811;19;20440;-64
2023/05/29 08:10:27;;;;;;;0.88;0.47;;;;;;;28.82;31.67;101241.63;7400981;19;20021;-64
2023/05/29 08:12:53;;;;;;;0.17;0.17;;;;;;;28.83;32.05;101246.00;7401960;19;20372;-64
2023/05/29 08:15:20;;;;;;;2.03;0.43;;;;;;;28.95;32.18;101238.59;7400662;19;20007;-64
2023/05/29 08:17:46;;;;;;;0.13;0.10;;;;;;;29.11;32.12;101231.50;7400269;19;20451;-64
2023/05/29 08:20:13;;;;;;;0.40;0.20;;;;;;;29.24;31.68;101242.84;7400829;19;20062;-64
2023/05/29 08:22:39;;;;;;;1.15;0.50;;;;;;;29.53;31.58;101235.56;7402247;19;20019;-64
2023/05/29 08:25:05;;;;;;;1.38;0.63;;;;;;;29.53;31.94;101226.94;7399763;19;20003;-63
2023/05/29 08:27:31;;;;;;;0.15;0.15;;;;;;;29.49;31.56;101240.94;7400741;19;20011;-63
2023/05/29 08:29:58;;;;;;;0.75;0.55;;;;;;;29.29;31.47;101239.03;7398790;19;20039;-64
2023/05/29 08:32:24;;;;;;;0.43;0.25;;;;;;;29.05;31.49;101242.41;7400974;19;20018;-65
2023/05/29 08:34:50;;;;;;;0.13;0.10;;;;;;;29.23;31.03;101244.19;7399532;19;20361;-65
2023/05/29 08:37:17;;;;;;;3.03;1.15;;;;;;;29.43;31.07;101242.47;7400384;19;20006;-66
2023/05/29 08:39:43;;;;;;;0.85;0.47;;;;;;;32.12;29.02;101237.06;7401189;19;20078;-65
2023/05/29 08:42:18;;;;;;;2.72;0.57;;;;;;;32.75;28.16;101231.44;7400182;19;20018;-66
2023/05/29 08:44:47;;;;;;;0.13;0.13;;;;;;;33.08;28.07;101237.69;7395098;19;20014;-65
2023/05/29 08:47:20;;;;;;;1.83;0.45;;;;;;;33.21;27.83;101240.19;7395013;19;20027;-65
2023/05/29 08:49:53;;;;;;;0.10;0.00;;;;;;;33.10;27.01;101246.53;7396691;19;20010;-65
2023/05/29 08:52:21;;;;;;;0.10;0.00;;;;;;;32.95;27.12;101246.72;7395594;19;20047;-65
2023/05/29 08:54:48;;;;;;;5.47;0.60;;;;;;;32.80;27.50;101250.63;7395160;19;20015;-65
2023/05/29 08:57:14;;;;;;;2.65;0.35;;;;;;;32.90;26.97;101251.41;7395864;19;20329;-66
2023/05/29 08:59:44;;;;;;;5.72;0.43;;;;;;;32.94;27.04;101251.00;7400193;19;20014;-65
2023/05/29 09:02:11;;;;;;;0.30;0.20;;;;;;;33.00;26.99;101248.63;7395661;19;20015;-65
2023/05/29 09:04:39;;;;;;;0.32;0.20;;;;;;;32.96;27.41;101248.25;7394681;19;20031;-63
2023/05/29 09:07:08;;;;;;;1.85;0.68;;;;;;;33.01;27.09;101248.00;7396155;19;20082;-65
2023/05/29 09:09:34;;;;;;;4.47;0.82;;;;;;;33.18;27.17;101252.97;7395962;19;20017;-66
2023/05/29 09:12:02;;;;;;;1.08;0.30;;;;;;;33.23;27.20;101243.22;7395995;19;20006;-66
2023/05/29 09:14:34;;;;;;;0.40;0.20;;;;;;;33.51;27.27;101246.22;7395687;19;20006;-66
2023/05/29 09:17:00;;;;;;;1.40;0.98;;;;;;;33.37;27.36;101253.03;7395043;19;20039;-66
2023/05/29 09:19:26;;;;;;;0.70;0.35;;;;;;;32.30;27.91;101247.22;7394165;19;20023;-66
2023/05/29 09:22:00;;;;;;;3.35;0.50;;;;;;;31.62;28.91;101259.47;7395352;19;20023;-65
2023/05/29 09:24:28;;;;;;;2.17;0.35;;;;;;;31.77;28.88;101247.06;7394407;19;20015;-65
2023/05/29 09:26:55;;;;;;;2.75;0.20;;;;;;;31.95;28.56;101242.84;7395279;19;20462;-65
2023/05/29 09:29:21;;;;;;;0.88;0.15;;;;;;;31.68;28.72;101239.06;7398096;19;20014;-62
2023/05/29 09:31:48;;;;;;;7.22;0.47;;;;;;;31.58;28.39;101241.84;7394617;19;20062;-65
2023/05/29 09:34:15;;;;;;;1.17;0.30;;;;;;;31.51;28.77;101254.22;7395886;19;20015;-66
2023/05/29 09:36:41;;;;;;;0.30;0.10;;;;;;;31.32;29.19;101248.97;7393443;19;20035;-65
2023/05/29 09:39:10;;;;;;;0.80;0.13;;;;;;;31.18;28.97;101242.00;7393052;19;20018;-65
2023/05/29 09:41:44;;;;;;;2.08;0.10;;;;;;;31.19;28.98;101245.63;7393171;19;20459;-65
2023/05/29 09:44:13;;;;;;;1.70;0.88;;;;;;;31.17;29.16;101246.22;7394219;19;20015;-67
2023/05/29 09:46:42;;;;;;;0.45;0.20;;;;;;;31.06;29.12;101255.31;7394707;19;20011;-65
2023/05/29 09:49:13;;;;;;;0.73;0.30;;;;;;;31.09;28.85;101250.50;7392459;19;20017;-66
2023/05/29 09:51:42;;;;;;;1.88;0.40;;;;;;;31.39;28.69;101247.38;7393202;19;20014;-65
2023/05/29 09:54:18;;;;;;;0.10;0.10;;;;;;;31.70;29.03;101242.13;7392572;19;20035;-65
2023/05/29 09:56:45;;;;;;;0.17;0.13;;;;;;;31.77;28.53;101247.06;7392407;19;20015;-64
2023/05/29 09:59:13;;;;;;;1.27;0.30;;;;;;;31.66;28.84;101247.56;7396591;19;20015;-65
2023/05/29 10:01:44;;;;;;;1.90;0.13;;;;;;;31.51;28.95;101241.94;7392533;19;20034;-64
2023/05/29 10:04:11;;;;;;;1.13;0.30;;;;;;;31.31;28.74;101244.56;7393115;19;20062;-65
2023/05/29 10:06:41;;;;;;;3.67;0.30;;;;;;;31.42;28.37;101246.97;7393382;19;20026;-63
2023/05/29 10:09:10;;;;;;;0.52;0.35;;;;;;;31.78;28.72;101239.91;7391022;19;20035;-63
2023/05/29 10:11:40;;;;;;;0.10;0.10;;;;;;;31.82;28.29;101231.63;7392659;19;20039;-62
2023/05/29 10:14:09;;;;;;;;;;;;;;;31.74;28.67;101230.94;7392112;19;20019;-62
2023/05/29 10:16:41;;;;;;;1.67;0.30;;;;;;;31.66;29.37;101233.91;7394285;19;19919;-62
2023/05/29 10:19:18;;;;;;;0.93;0.38;;;;;;;31.63;29.20;101231.44;7398855;19;20079;-61
2023/05/29 10:21:45;;;;;;;5.10;0.30;;;;;;;31.65;29.60;101228.72;7400798;19;20028;-61
2023/05/29 10:24:12;;;;;;;1.98;0.20;;;;;;;31.95;28.84;101225.53;7399957;19;20482;-62
2023/05/29 10:26:40;;;;;;;0.98;0.25;;;;;;;31.90;28.67;101226.56;7402082;19;20014;-62
2023/05/29 10:29:34;;;;;;;1.88;0.40;;;;;;;32.05;28.83;101227.16;7403705;19;20007;-63
2023/05/29 10:32:06;;;;;;;1.50;0.35;;;;;;;31.93;28.42;101219.59;7400344;19;20401;-65
2023/05/29 10:34:40;;;;;;;0.45;0.45;;;;;;;31.98;28.51;101222.25;7402679;19;20015;-63
2023/05/29 10:37:34;;;;;;;2.45;0.30;;;;;;;32.45;28.85;101223.19;7400740;19;20040;-62
2023/05/29 10:40:17;;;;;;;5.60;0.20;;;;;;;32.69;28.59;101220.19;7400957;19;20402;-62
2023/05/29 10:42:43;;;;;;;1.10;0.20;;;;;;;32.83;28.11;101220.56;7400136;19;20400;-63
2023/05/29 10:45:11;;;;;;;2.92;0.25;;;;;;;33.00;28.27;101223.41;7400554;19;20484;-65
2023/05/29 10:47:39;;;;;;;7.40;0.40;;;;;;;33.10;28.25;101229.19;7400070;19;20102;-61
2023/05/29 10:50:05;;;;;;;2.20;0.57;;;;;;;33.11;27.71;101219.94;7399972;19;20039;-62
2023/05/29 10:52:32;;;;;;;0.77;0.30;;;;;;;33.29;28.17;101229.25;7400365;19;20019;-61
2023/05/29 10:55:00;;;;;;;6.05;0.60;;;;;;;33.17;27.97;101234.88;7399191;19;20010;-63
2023/05/29 10:57:28;;;;;;;4.68;0.55;;;;;;;33.12;27.75;101226.47;7399945;19;20092;-64
2023/05/29 11:00:04;;;;;;;2.40;0.73;;;;;;;33.04;27.76;101220.84;7400664;19;20081;-61
2023/05/29 11:02:30;;;;;;;0.65;0.10;;;;;;;33.05;27.96;101216.56;7399063;19;20010;-59
2023/05/29 11:05:19;;;;;;;0.95;0.50;;;;;;;33.23;27.74;101215.13;7399465;19;20075;-60
2023/05/29 11:18:50;;;;;;;0.43;0.20;;;;;;;33.32;27.22;101204.94;7398609;19;20023;-63
2023/05/29 11:21:42;;;;;;;0.77;0.43;;;;;;;33.25;27.17;101200.06;7396475;19;20070;-63
2023/05/29 11:24:20;;;;;;;2.38;0.22;;;;;;;33.32;27.62;101204.94;7396084;19;20011;-62
2023/05/29 11:26:53;;;;;;;4.05;0.25;;;;;;;33.23;27.39;101192.00;7395532;19;20546;-63
2023/05/29 11:29:25;;;;;;;4.07;0.60;;;;;;;33.50;27.71;101200.59;7400979;19;20486;-63
2023/05/29 11:32:11;;;;;;;5.72;0.50;;;;;;;33.77;27.71;101195.47;7399303;19;20375;-63
2023/05/29 12:00:18;;;;;;;0.85;0.30;;;;;;;34.78;26.94;101195.03;7400379;19;20014;-63
2023/05/29 12:02:56;;;;;;;1.15;0.38;;;;;;;35.02;26.81;101191.00;7392472;19;20003;-64
2023/05/29 12:05:32;;;;;;;2.50;0.65;;;;;;;35.01;26.46;101194.53;7397449;19;20014;-62
2023/05/29 12:22:38;;;;;;;0.30;0.20;;;;;;;34.75;27.17;101178.91;7398769;19;20019;-63